sensor_id;sensor_type;location;lat;lon;timestamp;temperature;humidity
6307;DHT22;3186;54.062;9.962;2022-08-19T00:00:35;23.20;99.90
6307;DHT22;3186;54.062;9.962;2022-08-19T00:03:02;23.20;99.90
6307;DHT22;3186;54.062;9.962;2022-08-19T00:05:28;23.20;99.90
6307;DHT22;3186;54.062;9.962;2022-08-19T00:07:53;23.10;99.90
6307;DHT22;3186;54.062;9.962;2022-08-19T00:10:20;23.20;99.90
6307;DHT22;3186;54.062;9.962;2022-08-19T00:12:46;23.10;99.90
6307;DHT22;3186;54.062;9.962;2022-08-19T00:15:15;23.10;99.90
6307;DHT22;3186;54.062;9.962;2022-08-19T00:17:43;23.00;99.90
6307;DHT22;3186;54.062;9.962;2022-08-19T00:20:18;22.90;99.90
6307;DHT22;3186;54.062;9.962;2022-08-19T00:22:45;22.90;99.90
6307;DHT22;3186;54.062;9.962;2022-08-19T00:25:11;23.00;99.90
6307;DHT22;3186;54.062;9.962;2022-08-19T00:27:38;23.00;99.90
6307;DHT22;3186;54.062;9.962;2022-08-19T00:30:05;23.00;99.90
6307;DHT22;3186;54.062;9.962;2022-08-19T00:32:32;22.90;99.90
6307;DHT22;3186;54.062;9.962;2022-08-19T00:35:00;22.90;99.90
6307;DHT22;3186;54.062;9.962;2022-08-19T00:37:27;22.90;99.90
6307;DHT22;3186;54.062;9.962;2022-08-19T00:39:53;22.90;99.90
6307;DHT22;3186;54.062;9.962;2022-08-19T00:42:20;22.90;99.90
6307;DHT22;3186;54.062;9.962;2022-08-19T00:44:47;22.90;99.90
6307;DHT22;3186;54.062;9.962;2022-08-19T00:47:13;22.90;99.90
6307;DHT22;3186;54.062;9.962;2022-08-19T00:49:51;22.90;99.90
6307;DHT22;3186;54.062;9.962;2022-08-19T00:52:26;22.80;99.90
6307;DHT22;3186;54.062;9.962;2022-08-19T00:54:55;22.80;99.90
6307;DHT22;3186;54.062;9.962;2022-08-19T00:57:30;22.80;99.90
6307;DHT22;3186;54.062;9.962;2022-08-19T00:59:59;22.80;99.90
6307;DHT22;3186;54.062;9.962;2022-08-19T01:02:27;22.80;99.90
6307;DHT22;3186;54.062;9.962;2022-08-19T01:04:53;22.70;99.90
6307;DHT22;3186;54.062;9.962;2022-08-19T01:07:19;22.70;99.90
6307;DHT22;3186;54.062;9.962;2022-08-19T01:09:46;22.70;99.90
6307;DHT22;3186;54.062;9.962;2022-08-19T01:12:12;22.70;99.90
6307;DHT22;3186;54.062;9.962;2022-08-19T01:14:39;22.60;99.90
6307;DHT22;3186;54.062;9.962;2022-08-19T01:17:09;22.60;99.90
6307;DHT22;3186;54.062;9.962;2022-08-19T01:19:38;22.70;99.90
6307;DHT22;3186;54.062;9.962;2022-08-19T01:24:36;22.70;99.90
6307;DHT22;3186;54.062;9.962;2022-08-19T01:27:04;22.50;99.90
6307;DHT22;3186;54.062;9.962;2022-08-19T01:29:30;22.60;99.90
6307;DHT22;3186;54.062;9.962;2022-08-19T01:31:57;22.50;99.90
6307;DHT22;3186;54.062;9.962;2022-08-19T01:34:23;22.50;99.90
6307;DHT22;3186;54.062;9.962;2022-08-19T01:36:49;22.50;99.90
6307;DHT22;3186;54.062;9.962;2022-08-19T01:39:22;22.50;99.90
6307;DHT22;3186;54.062;9.962;2022-08-19T01:41:49;22.50;99.90
6307;DHT22;3186;54.062;9.962;2022-08-19T01:44:16;22.50;99.90
6307;DHT22;3186;54.062;9.962;2022-08-19T01:46:42;22.50;99.90
6307;DHT22;3186;54.062;9.962;2022-08-19T01:49:10;22.40;99.90
6307;DHT22;3186;54.062;9.962;2022-08-19T01:51:37;22.30;99.90
6307;DHT22;3186;54.062;9.962;2022-08-19T01:54:03;22.30;99.90
6307;DHT22;3186;54.062;9.962;2022-08-19T01:56:29;22.30;99.90
6307;DHT22;3186;54.062;9.962;2022-08-19T01:59:11;22.30;99.90
6307;DHT22;3186;54.062;9.962;2022-08-19T02:01:37;22.30;99.90
6307;DHT22;3186;54.062;9.962;2022-08-19T02:04:03;22.30;99.90
6307;DHT22;3186;54.062;9.962;2022-08-19T02:06:31;22.30;99.90
6307;DHT22;3186;54.062;9.962;2022-08-19T02:08:58;22.20;99.90
6307;DHT22;3186;54.062;9.962;2022-08-19T02:11:33;22.20;99.90
6307;DHT22;3186;54.062;9.962;2022-08-19T02:14:01;22.20;99.90
6307;DHT22;3186;54.062;9.962;2022-08-19T02:16:30;22.20;99.90
6307;DHT22;3186;54.062;9.962;2022-08-19T02:18:56;22.20;99.90
6307;DHT22;3186;54.062;9.962;2022-08-19T02:21:23;22.00;99.90
6307;DHT22;3186;54.062;9.962;2022-08-19T02:23:50;22.20;99.90
6307;DHT22;3186;54.062;9.962;2022-08-19T02:26:17;22.20;99.90
6307;DHT22;3186;54.062;9.962;2022-08-19T02:28:43;22.10;99.90
6307;DHT22;3186;54.062;9.962;2022-08-19T02:31:15;22.10;99.90
6307;DHT22;3186;54.062;9.962;2022-08-19T02:33:43;22.10;99.90
6307;DHT22;3186;54.062;9.962;2022-08-19T02:36:10;22.10;99.90
6307;DHT22;3186;54.062;9.962;2022-08-19T02:38:37;22.10;99.90
6307;DHT22;3186;54.062;9.962;2022-08-19T02:41:11;22.10;99.90
6307;DHT22;3186;54.062;9.962;2022-08-19T02:43:38;22.00;99.90
6307;DHT22;3186;54.062;9.962;2022-08-19T02:46:19;22.10;99.90
6307;DHT22;3186;54.062;9.962;2022-08-19T02:48:51;22.00;99.90
6307;DHT22;3186;54.062;9.962;2022-08-19T02:51:24;22.10;99.90
6307;DHT22;3186;54.062;9.962;2022-08-19T02:53:50;22.00;99.90
6307;DHT22;3186;54.062;9.962;2022-08-19T02:56:16;22.00;99.90
6307;DHT22;3186;54.062;9.962;2022-08-19T02:58:42;22.00;99.90
6307;DHT22;3186;54.062;9.962;2022-08-19T03:01:09;22.00;99.90
6307;DHT22;3186;54.062;9.962;2022-08-19T03:03:36;22.00;99.90
6307;DHT22;3186;54.062;9.962;2022-08-19T03:06:13;22.00;99.90
6307;DHT22;3186;54.062;9.962;2022-08-19T03:08:41;22.00;99.90
6307;DHT22;3186;54.062;9.962;2022-08-19T03:11:17;22.00;99.90
6307;DHT22;3186;54.062;9.962;2022-08-19T03:13:44;22.00;99.90
6307;DHT22;3186;54.062;9.962;2022-08-19T03:16:11;22.00;99.90
6307;DHT22;3186;54.062;9.962;2022-08-19T03:18:38;21.90;99.90
6307;DHT22;3186;54.062;9.962;2022-08-19T03:21:04;21.90;99.90
6307;DHT22;3186;54.062;9.962;2022-08-19T03:23:31;21.80;99.90
6307;DHT22;3186;54.062;9.962;2022-08-19T03:25:56;21.90;99.90
6307;DHT22;3186;54.062;9.962;2022-08-19T03:28:23;21.90;99.90
6307;DHT22;3186;54.062;9.962;2022-08-19T03:30:57;21.90;99.90
6307;DHT22;3186;54.062;9.962;2022-08-19T03:33:24;21.90;99.90
6307;DHT22;3186;54.062;9.962;2022-08-19T03:36:07;21.80;99.90
6307;DHT22;3186;54.062;9.962;2022-08-19T03:38:36;21.80;99.90
6307;DHT22;3186;54.062;9.962;2022-08-19T03:41:07;21.80;99.90
6307;DHT22;3186;54.062;9.962;2022-08-19T03:43:38;21.80;99.90
6307;DHT22;3186;54.062;9.962;2022-08-19T03:46:12;21.90;99.90
6307;DHT22;3186;54.062;9.962;2022-08-19T03:48:40;21.80;99.90
6307;DHT22;3186;54.062;9.962;2022-08-19T03:51:07;21.90;99.90
6307;DHT22;3186;54.062;9.962;2022-08-19T03:53:34;21.80;99.90
6307;DHT22;3186;54.062;9.962;2022-08-19T03:56:00;21.80;99.90
6307;DHT22;3186;54.062;9.962;2022-08-19T03:58:30;21.80;99.90
6307;DHT22;3186;54.062;9.962;2022-08-19T04:00:56;21.80;99.90
6307;DHT22;3186;54.062;9.962;2022-08-19T04:03:25;21.80;99.90
6307;DHT22;3186;54.062;9.962;2022-08-19T04:05:52;21.80;99.90
6307;DHT22;3186;54.062;9.962;2022-08-19T04:08:19;21.70;99.90
6307;DHT22;3186;54.062;9.962;2022-08-19T04:10:48;21.80;99.90
6307;DHT22;3186;54.062;9.962;2022-08-19T04:13:18;21.80;99.90
6307;DHT22;3186;54.062;9.962;2022-08-19T04:15:45;21.80;99.90
6307;DHT22;3186;54.062;9.962;2022-08-19T04:18:12;21.80;99.90
6307;DHT22;3186;54.062;9.962;2022-08-19T04:20:44;21.80;99.90
6307;DHT22;3186;54.062;9.962;2022-08-19T04:23:11;21.70;99.90
6307;DHT22;3186;54.062;9.962;2022-08-19T04:25:39;21.70;99.90
6307;DHT22;3186;54.062;9.962;2022-08-19T04:28:05;21.80;99.90
6307;DHT22;3186;54.062;9.962;2022-08-19T04:30:44;21.70;99.90
6307;DHT22;3186;54.062;9.962;2022-08-19T04:33:11;21.60;99.90
6307;DHT22;3186;54.062;9.962;2022-08-19T04:35:44;21.60;99.90
6307;DHT22;3186;54.062;9.962;2022-08-19T04:38:11;21.70;99.90
6307;DHT22;3186;54.062;9.962;2022-08-19T04:40:43;21.70;99.90
6307;DHT22;3186;54.062;9.962;2022-08-19T04:43:27;21.70;99.90
6307;DHT22;3186;54.062;9.962;2022-08-19T04:45:53;21.60;99.90
6307;DHT22;3186;54.062;9.962;2022-08-19T04:48:20;21.70;99.90
6307;DHT22;3186;54.062;9.962;2022-08-19T04:50:53;21.60;99.90
6307;DHT22;3186;54.062;9.962;2022-08-19T04:53:28;21.60;99.90
6307;DHT22;3186;54.062;9.962;2022-08-19T04:55:55;21.60;99.90
6307;DHT22;3186;54.062;9.962;2022-08-19T04:58:23;21.60;99.90
6307;DHT22;3186;54.062;9.962;2022-08-19T05:00:49;21.60;99.90
6307;DHT22;3186;54.062;9.962;2022-08-19T05:03:15;21.60;99.90
6307;DHT22;3186;54.062;9.962;2022-08-19T05:05:43;21.60;99.90
6307;DHT22;3186;54.062;9.962;2022-08-19T05:08:13;21.60;99.90
6307;DHT22;3186;54.062;9.962;2022-08-19T05:10:39;21.60;99.90
6307;DHT22;3186;54.062;9.962;2022-08-19T05:13:06;21.60;99.90
6307;DHT22;3186;54.062;9.962;2022-08-19T05:15:34;21.60;99.90
6307;DHT22;3186;54.062;9.962;2022-08-19T05:18:01;21.60;99.90
6307;DHT22;3186;54.062;9.962;2022-08-19T05:20:45;21.50;99.90
6307;DHT22;3186;54.062;9.962;2022-08-19T05:23:29;21.50;99.90
6307;DHT22;3186;54.062;9.962;2022-08-19T05:25:55;21.50;99.90
6307;DHT22;3186;54.062;9.962;2022-08-19T05:28:21;21.50;99.90
6307;DHT22;3186;54.062;9.962;2022-08-19T05:30:48;21.50;99.90
6307;DHT22;3186;54.062;9.962;2022-08-19T05:33:16;21.50;99.90
6307;DHT22;3186;54.062;9.962;2022-08-19T05:35:42;21.50;99.90
6307;DHT22;3186;54.062;9.962;2022-08-19T05:38:10;21.50;99.90
6307;DHT22;3186;54.062;9.962;2022-08-19T05:40:37;21.60;99.90
6307;DHT22;3186;54.062;9.962;2022-08-19T05:43:08;21.50;99.90
6307;DHT22;3186;54.062;9.962;2022-08-19T05:45:39;21.50;99.90
6307;DHT22;3186;54.062;9.962;2022-08-19T05:48:05;21.60;99.90
6307;DHT22;3186;54.062;9.962;2022-08-19T05:50:31;21.60;99.90
6307;DHT22;3186;54.062;9.962;2022-08-19T05:52:56;21.50;99.90
6307;DHT22;3186;54.062;9.962;2022-08-19T05:55:22;21.50;99.90
6307;DHT22;3186;54.062;9.962;2022-08-19T05:57:49;21.50;99.90
6307;DHT22;3186;54.062;9.962;2022-08-19T06:00:15;21.40;99.90
6307;DHT22;3186;54.062;9.962;2022-08-19T06:02:41;21.50;99.90
6307;DHT22;3186;54.062;9.962;2022-08-19T06:05:08;21.50;99.90
6307;DHT22;3186;54.062;9.962;2022-08-19T06:07:39;21.40;99.90
6307;DHT22;3186;54.062;9.962;2022-08-19T06:10:08;21.50;99.90
6307;DHT22;3186;54.062;9.962;2022-08-19T06:12:35;21.50;99.90
6307;DHT22;3186;54.062;9.962;2022-08-19T06:15:09;21.50;99.90
6307;DHT22;3186;54.062;9.962;2022-08-19T06:17:35;21.50;99.90
6307;DHT22;3186;54.062;9.962;2022-08-19T06:20:06;21.50;99.90
6307;DHT22;3186;54.062;9.962;2022-08-19T06:22:38;21.50;99.90
6307;DHT22;3186;54.062;9.962;2022-08-19T06:25:04;21.50;99.90
6307;DHT22;3186;54.062;9.962;2022-08-19T06:27:30;21.50;99.90
6307;DHT22;3186;54.062;9.962;2022-08-19T06:29:57;21.50;99.90
6307;DHT22;3186;54.062;9.962;2022-08-19T06:32:23;21.40;99.90
6307;DHT22;3186;54.062;9.962;2022-08-19T06:34:49;21.40;99.90
6307;DHT22;3186;54.062;9.962;2022-08-19T06:37:15;21.40;99.90
6307;DHT22;3186;54.062;9.962;2022-08-19T06:39:43;21.30;99.90
6307;DHT22;3186;54.062;9.962;2022-08-19T06:42:10;21.40;99.90
6307;DHT22;3186;54.062;9.962;2022-08-19T06:44:45;21.40;99.90
6307;DHT22;3186;54.062;9.962;2022-08-19T06:47:17;21.40;99.90
6307;DHT22;3186;54.062;9.962;2022-08-19T06:49:43;21.50;99.90
6307;DHT22;3186;54.062;9.962;2022-08-19T06:52:10;21.40;99.90
6307;DHT22;3186;54.062;9.962;2022-08-19T06:54:40;21.40;99.90
6307;DHT22;3186;54.062;9.962;2022-08-19T06:57:07;21.40;99.90
6307;DHT22;3186;54.062;9.962;2022-08-19T06:59:34;21.40;99.90
6307;DHT22;3186;54.062;9.962;2022-08-19T07:02:04;21.40;99.90
6307;DHT22;3186;54.062;9.962;2022-08-19T07:04:31;21.40;99.90
6307;DHT22;3186;54.062;9.962;2022-08-19T07:07:10;21.40;99.90
6307;DHT22;3186;54.062;9.962;2022-08-19T07:09:39;21.40;99.90
6307;DHT22;3186;54.062;9.962;2022-08-19T07:12:08;21.40;99.90
6307;DHT22;3186;54.062;9.962;2022-08-19T07:14:35;21.50;99.90
6307;DHT22;3186;54.062;9.962;2022-08-19T07:17:05;21.40;99.90
6307;DHT22;3186;54.062;9.962;2022-08-19T07:19:32;21.40;99.90
6307;DHT22;3186;54.062;9.962;2022-08-19T07:21:58;21.40;99.90
6307;DHT22;3186;54.062;9.962;2022-08-19T07:24:27;21.40;99.90
6307;DHT22;3186;54.062;9.962;2022-08-19T07:26:57;21.40;99.90
6307;DHT22;3186;54.062;9.962;2022-08-19T07:29:27;21.40;99.90
6307;DHT22;3186;54.062;9.962;2022-08-19T07:31:54;21.30;99.90
6307;DHT22;3186;54.062;9.962;2022-08-19T07:34:23;21.30;99.90
6307;DHT22;3186;54.062;9.962;2022-08-19T07:36:49;21.20;99.90
6307;DHT22;3186;54.062;9.962;2022-08-19T07:39:36;21.30;99.90
6307;DHT22;3186;54.062;9.962;2022-08-19T07:42:06;21.30;99.90
6307;DHT22;3186;54.062;9.962;2022-08-19T07:44:33;21.30;99.90
6307;DHT22;3186;54.062;9.962;2022-08-19T07:47:00;21.30;99.90
6307;DHT22;3186;54.062;9.962;2022-08-19T07:49:26;21.30;99.90
6307;DHT22;3186;54.062;9.962;2022-08-19T07:51:58;21.20;99.90
6307;DHT22;3186;54.062;9.962;2022-08-19T07:54:29;21.30;99.90
6307;DHT22;3186;54.062;9.962;2022-08-19T07:56:56;21.30;99.90
6307;DHT22;3186;54.062;9.962;2022-08-19T07:59:23;21.30;99.90
6307;DHT22;3186;54.062;9.962;2022-08-19T08:01:50;21.30;99.90
6307;DHT22;3186;54.062;9.962;2022-08-19T08:04:17;21.30;99.90
6307;DHT22;3186;54.062;9.962;2022-08-19T08:07:03;21.40;99.90
6307;DHT22;3186;54.062;9.962;2022-08-19T08:09:48;21.40;99.90
6307;DHT22;3186;54.062;9.962;2022-08-19T08:12:23;21.40;99.90
6307;DHT22;3186;54.062;9.962;2022-08-19T08:15:04;21.40;99.90
6307;DHT22;3186;54.062;9.962;2022-08-19T08:17:30;21.40;99.90
6307;DHT22;3186;54.062;9.962;2022-08-19T08:19:57;21.40;99.90
6307;DHT22;3186;54.062;9.962;2022-08-19T08:22:24;21.30;99.90
6307;DHT22;3186;54.062;9.962;2022-08-19T08:25:18;21.30;99.90
6307;DHT22;3186;54.062;9.962;2022-08-19T08:27:45;21.30;99.90
6307;DHT22;3186;54.062;9.962;2022-08-19T08:30:17;21.30;99.90
6307;DHT22;3186;54.062;9.962;2022-08-19T08:32:44;21.30;99.90
6307;DHT22;3186;54.062;9.962;2022-08-19T08:35:12;21.40;99.90
6307;DHT22;3186;54.062;9.962;2022-08-19T08:37:38;21.50;99.90
6307;DHT22;3186;54.062;9.962;2022-08-19T08:42:46;21.50;99.90
6307;DHT22;3186;54.062;9.962;2022-08-19T08:45:17;21.50;99.90
6307;DHT22;3186;54.062;9.962;2022-08-19T08:47:47;21.50;99.90
6307;DHT22;3186;54.062;9.962;2022-08-19T08:50:41;21.60;99.90
6307;DHT22;3186;54.062;9.962;2022-08-19T08:53:08;21.50;99.90
6307;DHT22;3186;54.062;9.962;2022-08-19T08:55:36;21.50;99.90
6307;DHT22;3186;54.062;9.962;2022-08-19T09:01:10;21.50;99.90
6307;DHT22;3186;54.062;9.962;2022-08-19T09:03:38;21.60;99.90
6307;DHT22;3186;54.062;9.962;2022-08-19T09:06:38;21.60;99.90
6307;DHT22;3186;54.062;9.962;2022-08-19T09:17:03;21.60;99.90
6307;DHT22;3186;54.062;9.962;2022-08-19T09:19:54;21.60;99.90
6307;DHT22;3186;54.062;9.962;2022-08-19T09:22:20;21.60;99.90
6307;DHT22;3186;54.062;9.962;2022-08-19T09:24:50;21.60;99.90
6307;DHT22;3186;54.062;9.962;2022-08-19T09:27:20;21.70;99.90
6307;DHT22;3186;54.062;9.962;2022-08-19T09:29:46;21.60;99.90
6307;DHT22;3186;54.062;9.962;2022-08-19T09:32:14;21.70;99.90
6307;DHT22;3186;54.062;9.962;2022-08-19T09:34:40;21.70;99.90
6307;DHT22;3186;54.062;9.962;2022-08-19T09:37:07;21.60;99.90
6307;DHT22;3186;54.062;9.962;2022-08-19T09:39:33;21.70;99.90
6307;DHT22;3186;54.062;9.962;2022-08-19T09:41:58;21.80;99.90
6307;DHT22;3186;54.062;9.962;2022-08-19T09:44:24;21.80;99.90
6307;DHT22;3186;54.062;9.962;2022-08-19T09:46:50;21.80;99.90
6307;DHT22;3186;54.062;9.962;2022-08-19T09:49:18;21.80;99.90
6307;DHT22;3186;54.062;9.962;2022-08-19T09:51:50;21.80;99.90
6307;DHT22;3186;54.062;9.962;2022-08-19T09:54:17;21.80;99.90
6307;DHT22;3186;54.062;9.962;2022-08-19T09:56:43;21.80;99.90
6307;DHT22;3186;54.062;9.962;2022-08-19T09:59:10;21.70;99.90
6307;DHT22;3186;54.062;9.962;2022-08-19T10:01:38;21.50;99.90
6307;DHT22;3186;54.062;9.962;2022-08-19T10:04:04;21.90;99.90
6307;DHT22;3186;54.062;9.962;2022-08-19T10:06:36;21.90;99.90
6307;DHT22;3186;54.062;9.962;2022-08-19T10:09:02;22.00;99.90
6307;DHT22;3186;54.062;9.962;2022-08-19T10:11:33;22.00;99.90
6307;DHT22;3186;54.062;9.962;2022-08-19T10:13:59;22.10;99.90
6307;DHT22;3186;54.062;9.962;2022-08-19T10:16:26;22.20;99.90
6307;DHT22;3186;54.062;9.962;2022-08-19T10:18:52;22.30;99.90
6307;DHT22;3186;54.062;9.962;2022-08-19T10:21:25;22.30;99.90
6307;DHT22;3186;54.062;9.962;2022-08-19T10:23:54;22.30;99.90
6307;DHT22;3186;54.062;9.962;2022-08-19T10:26:33;22.40;99.90
6307;DHT22;3186;54.062;9.962;2022-08-19T10:28:59;22.40;99.90
6307;DHT22;3186;54.062;9.962;2022-08-19T10:31:29;22.50;99.90
6307;DHT22;3186;54.062;9.962;2022-08-19T10:33:56;22.60;99.90
6307;DHT22;3186;54.062;9.962;2022-08-19T10:36:28;22.50;99.90
6307;DHT22;3186;54.062;9.962;2022-08-19T10:38:55;22.60;99.90
6307;DHT22;3186;54.062;9.962;2022-08-19T10:41:35;22.50;99.90
6307;DHT22;3186;54.062;9.962;2022-08-19T10:44:07;22.60;99.90
6307;DHT22;3186;54.062;9.962;2022-08-19T10:46:37;22.70;99.90
6307;DHT22;3186;54.062;9.962;2022-08-19T10:49:04;22.90;99.90
6307;DHT22;3186;54.062;9.962;2022-08-19T10:51:31;22.70;99.90
6307;DHT22;3186;54.062;9.962;2022-08-19T10:54:17;22.70;99.90
6307;DHT22;3186;54.062;9.962;2022-08-19T10:56:43;22.80;99.90
6307;DHT22;3186;54.062;9.962;2022-08-19T11:01:47;22.80;99.90
6307;DHT22;3186;54.062;9.962;2022-08-19T11:04:14;22.70;99.90
6307;DHT22;3186;54.062;9.962;2022-08-19T11:06:46;22.70;99.90
6307;DHT22;3186;54.062;9.962;2022-08-19T11:09:22;22.80;99.90
6307;DHT22;3186;54.062;9.962;2022-08-19T11:11:52;22.80;99.90
6307;DHT22;3186;54.062;9.962;2022-08-19T11:14:20;22.90;99.90
6307;DHT22;3186;54.062;9.962;2022-08-19T11:16:50;23.10;99.90
6307;DHT22;3186;54.062;9.962;2022-08-19T11:19:17;23.20;99.90
6307;DHT22;3186;54.062;9.962;2022-08-19T11:21:46;23.10;99.90
6307;DHT22;3186;54.062;9.962;2022-08-19T11:24:15;23.10;99.90
6307;DHT22;3186;54.062;9.962;2022-08-19T11:26:43;23.10;99.90
6307;DHT22;3186;54.062;9.962;2022-08-19T11:29:11;23.30;99.90
6307;DHT22;3186;54.062;9.962;2022-08-19T11:31:41;23.30;99.90
6307;DHT22;3186;54.062;9.962;2022-08-19T11:34:10;23.40;99.90
6307;DHT22;3186;54.062;9.962;2022-08-19T11:36:41;23.50;99.90
6307;DHT22;3186;54.062;9.962;2022-08-19T11:39:11;23.50;99.90
6307;DHT22;3186;54.062;9.962;2022-08-19T11:41:37;23.60;99.90
6307;DHT22;3186;54.062;9.962;2022-08-19T11:44:04;23.50;99.90
6307;DHT22;3186;54.062;9.962;2022-08-19T11:46:31;23.60;99.90
6307;DHT22;3186;54.062;9.962;2022-08-19T11:48:57;23.80;99.90
6307;DHT22;3186;54.062;9.962;2022-08-19T11:51:25;23.50;99.90
6307;DHT22;3186;54.062;9.962;2022-08-19T11:53:52;23.50;99.90
6307;DHT22;3186;54.062;9.962;2022-08-19T11:56:19;23.50;99.90
6307;DHT22;3186;54.062;9.962;2022-08-19T11:58:46;23.60;99.90
6307;DHT22;3186;54.062;9.962;2022-08-19T12:01:14;23.70;99.90
6307;DHT22;3186;54.062;9.962;2022-08-19T12:03:42;23.80;99.90
6307;DHT22;3186;54.062;9.962;2022-08-19T12:06:20;23.90;99.90
6307;DHT22;3186;54.062;9.962;2022-08-19T12:08:49;24.00;99.90
6307;DHT22;3186;54.062;9.962;2022-08-19T12:11:15;24.20;99.90
6307;DHT22;3186;54.062;9.962;2022-08-19T12:13:41;24.30;99.90
6307;DHT22;3186;54.062;9.962;2022-08-19T12:16:25;24.30;99.90
6307;DHT22;3186;54.062;9.962;2022-08-19T12:18:53;24.20;99.90
6307;DHT22;3186;54.062;9.962;2022-08-19T12:21:22;24.40;99.90
6307;DHT22;3186;54.062;9.962;2022-08-19T12:23:49;24.40;99.90
6307;DHT22;3186;54.062;9.962;2022-08-19T12:26:16;24.50;99.90
6307;DHT22;3186;54.062;9.962;2022-08-19T12:28:42;24.50;99.90
6307;DHT22;3186;54.062;9.962;2022-08-19T12:31:09;24.30;99.90
6307;DHT22;3186;54.062;9.962;2022-08-19T12:33:38;24.70;99.90
6307;DHT22;3186;54.062;9.962;2022-08-19T12:36:07;24.90;99.90
6307;DHT22;3186;54.062;9.962;2022-08-19T12:38:33;25.10;99.90
6307;DHT22;3186;54.062;9.962;2022-08-19T12:41:00;25.10;99.90
6307;DHT22;3186;54.062;9.962;2022-08-19T12:43:26;25.10;99.90
6307;DHT22;3186;54.062;9.962;2022-08-19T12:45:52;25.20;99.90
6307;DHT22;3186;54.062;9.962;2022-08-19T12:48:18;25.30;99.90
6307;DHT22;3186;54.062;9.962;2022-08-19T12:50:45;25.30;99.90
6307;DHT22;3186;54.062;9.962;2022-08-19T12:53:15;25.50;99.90
6307;DHT22;3186;54.062;9.962;2022-08-19T12:55:41;25.20;99.90
6307;DHT22;3186;54.062;9.962;2022-08-19T12:58:08;25.30;99.90
6307;DHT22;3186;54.062;9.962;2022-08-19T13:00:34;25.30;99.90
6307;DHT22;3186;54.062;9.962;2022-08-19T13:03:00;25.20;99.90
6307;DHT22;3186;54.062;9.962;2022-08-19T13:05:28;25.10;99.90
6307;DHT22;3186;54.062;9.962;2022-08-19T13:07:57;25.10;99.90
6307;DHT22;3186;54.062;9.962;2022-08-19T13:10:29;25.30;99.90
6307;DHT22;3186;54.062;9.962;2022-08-19T13:12:57;25.30;99.90
6307;DHT22;3186;54.062;9.962;2022-08-19T13:15:25;25.10;99.90
6307;DHT22;3186;54.062;9.962;2022-08-19T13:17:52;25.30;99.90
6307;DHT22;3186;54.062;9.962;2022-08-19T13:20:21;25.30;99.90
6307;DHT22;3186;54.062;9.962;2022-08-19T13:22:48;25.20;99.90
6307;DHT22;3186;54.062;9.962;2022-08-19T13:25:15;25.20;99.90
6307;DHT22;3186;54.062;9.962;2022-08-19T13:27:46;25.20;99.90
6307;DHT22;3186;54.062;9.962;2022-08-19T13:30:14;25.10;99.90
6307;DHT22;3186;54.062;9.962;2022-08-19T13:32:59;24.90;99.90
6307;DHT22;3186;54.062;9.962;2022-08-19T13:35:43;25.10;99.90
6307;DHT22;3186;54.062;9.962;2022-08-19T13:38:10;25.10;99.90
6307;DHT22;3186;54.062;9.962;2022-08-19T13:40:36;25.20;99.90
6307;DHT22;3186;54.062;9.962;2022-08-19T13:43:03;25.10;99.90
6307;DHT22;3186;54.062;9.962;2022-08-19T13:45:31;25.30;99.90
6307;DHT22;3186;54.062;9.962;2022-08-19T13:48:03;25.40;99.90
6307;DHT22;3186;54.062;9.962;2022-08-19T13:50:32;25.50;99.90
6307;DHT22;3186;54.062;9.962;2022-08-19T13:53:00;25.40;99.90
6307;DHT22;3186;54.062;9.962;2022-08-19T13:55:26;25.40;99.90
6307;DHT22;3186;54.062;9.962;2022-08-19T13:57:57;25.50;99.90
6307;DHT22;3186;54.062;9.962;2022-08-19T14:00:25;25.50;99.90
6307;DHT22;3186;54.062;9.962;2022-08-19T14:02:53;25.30;99.90
6307;DHT22;3186;54.062;9.962;2022-08-19T14:05:20;25.50;99.90
6307;DHT22;3186;54.062;9.962;2022-08-19T14:07:46;25.60;99.90
6307;DHT22;3186;54.062;9.962;2022-08-19T14:10:13;25.60;99.90
6307;DHT22;3186;54.062;9.962;2022-08-19T14:12:39;25.30;99.90
6307;DHT22;3186;54.062;9.962;2022-08-19T14:15:08;25.20;99.90
6307;DHT22;3186;54.062;9.962;2022-08-19T14:17:40;25.20;99.90
6307;DHT22;3186;54.062;9.962;2022-08-19T14:20:09;25.30;99.90
6307;DHT22;3186;54.062;9.962;2022-08-19T14:22:36;25.20;99.90
6307;DHT22;3186;54.062;9.962;2022-08-19T14:25:07;25.00;99.90
6307;DHT22;3186;54.062;9.962;2022-08-19T14:27:37;25.20;99.90
6307;DHT22;3186;54.062;9.962;2022-08-19T14:30:05;25.10;99.90
6307;DHT22;3186;54.062;9.962;2022-08-19T14:32:32;25.30;99.90
6307;DHT22;3186;54.062;9.962;2022-08-19T14:34:58;25.30;99.90
6307;DHT22;3186;54.062;9.962;2022-08-19T14:37:24;25.40;99.90
6307;DHT22;3186;54.062;9.962;2022-08-19T14:39:50;25.40;99.90
6307;DHT22;3186;54.062;9.962;2022-08-19T14:42:16;25.40;99.90
6307;DHT22;3186;54.062;9.962;2022-08-19T14:44:43;25.50;99.90
6307;DHT22;3186;54.062;9.962;2022-08-19T14:47:09;25.40;99.90
6307;DHT22;3186;54.062;9.962;2022-08-19T14:49:35;25.30;99.90
6307;DHT22;3186;54.062;9.962;2022-08-19T14:52:02;25.30;99.90
6307;DHT22;3186;54.062;9.962;2022-08-19T14:54:28;25.20;99.90
6307;DHT22;3186;54.062;9.962;2022-08-19T14:56:54;25.30;99.90
6307;DHT22;3186;54.062;9.962;2022-08-19T14:59:20;25.40;99.90
6307;DHT22;3186;54.062;9.962;2022-08-19T15:01:46;25.40;99.90
6307;DHT22;3186;54.062;9.962;2022-08-19T15:04:12;25.30;99.90
6307;DHT22;3186;54.062;9.962;2022-08-19T15:06:38;25.30;99.90
6307;DHT22;3186;54.062;9.962;2022-08-19T15:09:05;25.20;99.90
6307;DHT22;3186;54.062;9.962;2022-08-19T15:11:31;25.20;99.90
6307;DHT22;3186;54.062;9.962;2022-08-19T15:13:58;25.20;99.90
6307;DHT22;3186;54.062;9.962;2022-08-19T15:16:26;25.20;99.90
6307;DHT22;3186;54.062;9.962;2022-08-19T15:18:56;25.30;99.90
6307;DHT22;3186;54.062;9.962;2022-08-19T15:21:23;25.30;99.90
6307;DHT22;3186;54.062;9.962;2022-08-19T15:23:50;25.40;99.90
6307;DHT22;3186;54.062;9.962;2022-08-19T15:26:18;25.40;99.90
6307;DHT22;3186;54.062;9.962;2022-08-19T15:28:44;25.40;99.90
6307;DHT22;3186;54.062;9.962;2022-08-19T15:31:12;25.50;99.90
6307;DHT22;3186;54.062;9.962;2022-08-19T15:33:39;25.50;99.90
6307;DHT22;3186;54.062;9.962;2022-08-19T15:36:10;25.50;99.90
6307;DHT22;3186;54.062;9.962;2022-08-19T15:38:37;25.40;99.90
6307;DHT22;3186;54.062;9.962;2022-08-19T15:41:05;25.50;99.90
6307;DHT22;3186;54.062;9.962;2022-08-19T15:43:52;25.60;99.90
6307;DHT22;3186;54.062;9.962;2022-08-19T15:46:20;25.50;99.90
6307;DHT22;3186;54.062;9.962;2022-08-19T15:48:47;25.60;99.90
6307;DHT22;3186;54.062;9.962;2022-08-19T15:51:14;25.70;99.90
6307;DHT22;3186;54.062;9.962;2022-08-19T15:53:40;25.80;99.90
6307;DHT22;3186;54.062;9.962;2022-08-19T15:56:10;25.80;99.90
6307;DHT22;3186;54.062;9.962;2022-08-19T15:58:36;25.90;99.90
6307;DHT22;3186;54.062;9.962;2022-08-19T16:01:21;25.70;99.90
6307;DHT22;3186;54.062;9.962;2022-08-19T16:03:58;25.50;99.90
6307;DHT22;3186;54.062;9.962;2022-08-19T16:07:02;25.70;99.90
6307;DHT22;3186;54.062;9.962;2022-08-19T16:09:30;25.90;99.90
6307;DHT22;3186;54.062;9.962;2022-08-19T16:12:03;25.60;99.90
6307;DHT22;3186;54.062;9.962;2022-08-19T16:14:32;25.50;99.90
6307;DHT22;3186;54.062;9.962;2022-08-19T16:16:58;25.50;99.90
6307;DHT22;3186;54.062;9.962;2022-08-19T16:19:24;25.40;99.90
6307;DHT22;3186;54.062;9.962;2022-08-19T16:21:51;25.50;99.90
6307;DHT22;3186;54.062;9.962;2022-08-19T16:24:20;25.50;99.90
6307;DHT22;3186;54.062;9.962;2022-08-19T16:26:47;25.60;99.90
6307;DHT22;3186;54.062;9.962;2022-08-19T16:29:18;25.60;99.90
6307;DHT22;3186;54.062;9.962;2022-08-19T16:31:44;25.60;99.90